SZE weather

Semera Airport
Semera, Afar, Ethiopia

Public forecast

Using degrees Celsius for public forecast. Weather courtesy of forecast.io.

Closest aviation weather report (METAR) to Semera Airport

Report is more than 6 hours old.

Closest report is Assab International Airport, 123.9 nm (229.4 km) NE. Retrieved 2010/10/04 04:00 UTC (9 years ago):

HHSB 040400Z 0606 12010G20KT CAVOK

Closest aviation forecast (TAF) to Semera Airport

Forecast is more than 12 hours old.

Closest forecast is Assab International Airport, 123.9 nm (229.4 km) NE. Retrieved 2017/11/28 06:00 UTC (2 years ago):

TAF HHSB 280400Z 2806/2906 12015G25KT CAVOK BECMG 2818/2821 10010KT